createdAt,value
2019-05-29T09:59:16.448Z,0.40
2019-05-29T10:04:19.247Z,0.60
2019-05-29T10:09:21.341Z,0.47
2019-05-29T10:14:23.479Z,0.73
2019-05-29T10:19:25.656Z,0.40
2019-05-29T10:24:32.046Z,0.50
2019-05-29T10:29:32.115Z,0.30
2019-05-29T10:34:34.207Z,0.43
2019-05-29T10:39:36.754Z,0.60
2019-05-29T10:44:38.766Z,0.47
2019-05-29T10:49:41.000Z,0.40
2019-05-29T10:54:44.062Z,0.30
2019-05-29T10:59:48.729Z,0.47
2019-05-29T11:04:55.039Z,0.40
2019-05-29T11:09:56.284Z,0.40
2019-05-29T11:14:58.499Z,0.47
2019-05-29T11:20:00.688Z,0.30
2019-05-29T11:25:21.065Z,0.30
2019-05-29T11:30:08.774Z,0.40
2019-05-29T11:35:11.352Z,0.40
2019-05-29T11:40:13.775Z,0.30
2019-05-29T11:45:18.094Z,0.33
2019-05-29T11:50:20.325Z,0.60
2019-05-29T11:55:23.025Z,0.50
2019-05-29T12:00:25.459Z,0.40
2019-05-29T12:05:27.734Z,0.30
2019-05-29T12:10:29.925Z,0.43
2019-05-29T12:15:32.295Z,0.50
2019-05-29T12:20:34.492Z,0.70
2019-05-29T12:25:36.505Z,0.40
2019-05-29T12:30:40.028Z,0.63
2019-05-29T12:35:42.901Z,0.80
2019-05-29T12:40:45.950Z,0.50
2019-05-29T12:45:47.958Z,0.40
2019-05-29T12:50:50.680Z,0.40
2019-05-29T12:55:53.990Z,0.30
2019-05-29T13:00:56.473Z,0.47
2019-05-29T13:05:58.672Z,0.43
2019-05-29T13:11:00.632Z,0.50
2019-05-29T13:16:03.103Z,0.40
2019-05-29T13:21:06.113Z,0.30
2019-05-29T13:26:08.188Z,0.50
2019-05-29T13:31:12.215Z,0.50
2019-05-29T13:36:14.454Z,0.33
2019-05-29T13:41:16.445Z,0.50
2019-05-29T13:46:19.857Z,0.40
2019-05-29T13:51:22.208Z,0.53
2019-05-29T13:56:24.540Z,0.30
2019-05-29T14:01:26.820Z,0.37
2019-05-29T14:06:29.267Z,0.60
2019-05-29T14:11:31.333Z,0.43
2019-05-29T14:16:34.298Z,0.40
2019-05-29T14:21:36.441Z,0.40
2019-05-29T14:26:38.344Z,0.40
2019-05-29T14:31:41.592Z,0.60
2019-05-29T14:36:44.122Z,0.30
2019-05-29T14:41:46.349Z,0.30
2019-05-29T14:46:48.442Z,0.40
2019-05-29T14:51:50.405Z,0.43
2019-05-29T14:56:52.498Z,0.63
2019-05-29T15:01:54.458Z,0.50
2019-05-29T15:06:56.643Z,0.40
2019-05-29T15:11:59.829Z,0.40
2019-05-29T15:17:01.906Z,0.50
2019-05-29T15:22:05.002Z,0.30
2019-05-29T15:27:07.908Z,0.50
2019-05-29T15:34:28.585Z,0.50
2019-05-29T15:39:31.271Z,0.50
2019-05-29T15:44:34.393Z,0.40
2019-05-29T15:49:36.502Z,0.40
2019-05-29T15:54:39.078Z,0.40
2019-05-29T15:59:41.154Z,0.50
2019-05-29T16:04:44.799Z,0.30
2019-05-29T16:09:47.403Z,0.50
2019-05-29T16:14:50.313Z,0.40
2019-05-29T16:19:52.322Z,0.53
2019-05-29T16:24:54.471Z,0.50
2019-05-29T16:29:56.546Z,0.40
2019-05-29T16:34:58.972Z,0.40
2019-05-29T16:40:01.195Z,0.50
2019-05-29T16:45:05.302Z,0.40
2019-05-29T16:50:08.550Z,0.40
2019-05-29T16:55:12.947Z,0.50
2019-05-29T17:00:17.627Z,0.30
2019-05-29T17:05:20.484Z,0.50
2019-05-29T17:10:34.207Z,0.40
2019-05-29T17:15:36.308Z,0.40
2019-05-29T17:20:40.415Z,0.40
2019-05-29T17:25:42.522Z,0.50
2019-05-29T17:30:44.650Z,0.50
2019-05-29T17:35:46.764Z,0.50
2019-05-29T17:40:48.972Z,0.30
2019-05-29T17:45:51.483Z,0.40
2019-05-29T17:50:53.605Z,0.50
2019-05-29T17:55:55.805Z,0.50
2019-05-29T18:00:58.225Z,0.63
2019-05-29T18:06:00.347Z,0.70
2019-05-29T18:11:02.747Z,0.70
2019-05-29T18:16:04.963Z,0.50
2019-05-29T18:21:07.097Z,0.67
2019-05-29T18:26:09.258Z,0.40
2019-05-29T18:31:11.318Z,0.60
2019-05-29T18:36:14.473Z,0.40
2019-05-29T18:41:17.343Z,0.30
2019-05-29T18:46:21.035Z,0.40
2019-05-29T18:51:24.422Z,0.53
2019-05-29T18:56:28.033Z,0.60
2019-05-29T19:01:31.641Z,0.57
2019-05-29T19:06:34.038Z,0.63
2019-05-29T19:11:36.651Z,0.73
2019-05-29T19:16:39.686Z,0.60
2019-05-29T19:21:42.074Z,1.00
2019-05-29T19:26:44.200Z,0.50
2019-05-29T19:31:47.003Z,0.70
2019-05-29T19:36:49.279Z,0.80
2019-05-29T19:41:51.904Z,0.50
2019-05-29T19:46:54.440Z,0.53
2019-05-29T19:51:56.596Z,0.70
2019-05-29T19:56:58.915Z,0.90
2019-05-29T20:02:01.009Z,0.80
2019-05-29T20:07:04.789Z,0.90
2019-05-29T20:12:06.926Z,0.80
2019-05-29T20:17:08.946Z,0.83
2019-05-29T20:22:11.130Z,0.87
2019-05-29T20:27:13.543Z,0.70
2019-05-29T20:32:15.912Z,0.80
2019-05-29T20:37:18.020Z,0.80
2019-05-29T20:42:20.056Z,0.70
2019-05-29T20:47:22.135Z,0.87
2019-05-29T20:52:24.603Z,1.00
2019-05-29T20:57:26.764Z,0.90
2019-05-29T21:02:29.250Z,1.10
2019-05-29T21:07:32.512Z,1.03
2019-05-29T21:12:35.206Z,0.90
2019-05-29T21:22:38.598Z,1.10
2019-05-29T21:27:45.430Z,1.20
2019-05-29T21:38:42.343Z,1.00
2019-05-29T21:43:44.801Z,1.00
2019-05-29T21:48:47.534Z,1.30
2019-05-29T21:53:49.942Z,1.20
2019-05-29T21:59:02.384Z,1.30
2019-05-29T22:03:57.772Z,1.30
2019-05-29T22:08:59.882Z,1.43
2019-05-29T22:14:01.986Z,1.10
2019-05-29T22:19:04.419Z,1.30
2019-05-29T22:24:07.976Z,1.30
2019-05-29T22:29:17.818Z,1.43
2019-05-29T22:34:14.272Z,1.00
2019-05-29T22:39:16.311Z,1.20
2019-05-29T22:44:18.360Z,1.40
2019-05-29T22:49:20.585Z,1.30
2019-05-29T22:54:22.648Z,1.10
2019-05-29T22:59:32.008Z,1.40
2019-05-29T23:04:28.927Z,1.57
2019-05-29T23:09:31.160Z,1.47
2019-05-29T23:14:33.410Z,1.53
2019-05-29T23:19:35.595Z,1.47
2019-05-29T23:24:38.723Z,1.23
2019-05-29T23:29:48.891Z,1.30
2019-05-29T23:34:44.848Z,1.40
2019-05-29T23:39:46.868Z,1.50
2019-05-29T23:44:51.921Z,2.03
2019-05-29T23:49:53.610Z,2.37
2019-05-29T23:54:55.801Z,2.40
